createdAt,value
2024-03-18T00:00:57.775Z,1017.82
2024-03-18T00:01:57.745Z,1017.79
2024-03-18T00:02:57.753Z,1017.76
2024-03-18T00:03:57.777Z,1017.78
2024-03-18T00:04:57.769Z,1017.80
2024-03-18T00:05:57.780Z,1017.74
2024-03-18T00:06:57.797Z,1017.75
2024-03-18T00:07:57.796Z,1017.73
2024-03-18T00:08:57.807Z,1017.75
2024-03-18T00:09:57.813Z,1017.74
2024-03-18T00:10:57.828Z,1017.75
2024-03-18T00:11:57.831Z,1017.71
2024-03-18T00:12:57.840Z,1017.68
2024-03-18T00:13:57.848Z,1017.64
2024-03-18T00:14:57.856Z,1017.69
2024-03-18T00:15:57.867Z,1017.70
2024-03-18T00:16:57.875Z,1017.67
2024-03-18T00:17:57.884Z,1017.69
2024-03-18T00:18:57.892Z,1017.71
2024-03-18T00:19:57.902Z,1017.65
2024-03-18T00:20:57.910Z,1017.68
2024-03-18T00:21:57.918Z,1017.69
2024-03-18T00:22:57.926Z,1017.69
2024-03-18T00:23:57.934Z,1017.65
2024-03-18T00:24:57.942Z,1017.72
2024-03-18T00:25:57.953Z,1017.68
2024-03-18T00:26:57.961Z,1017.69
2024-03-18T00:27:57.976Z,1017.68
2024-03-18T00:28:57.985Z,1017.67
2024-03-18T00:29:57.986Z,1017.67
2024-03-18T00:30:57.995Z,1017.65
2024-03-18T00:31:58.018Z,1017.65
2024-03-18T00:32:58.021Z,1017.67
2024-03-18T00:33:58.027Z,1017.66
2024-03-18T00:34:58.033Z,1017.65
2024-03-18T00:35:58.042Z,1017.68
2024-03-18T00:36:58.053Z,1017.65
2024-03-18T00:37:58.056Z,1017.68
2024-03-18T00:38:58.064Z,1017.70
2024-03-18T00:39:58.084Z,1017.66
2024-03-18T00:40:58.088Z,1017.68
2024-03-18T00:41:58.092Z,1017.67
2024-03-18T00:42:58.100Z,1017.62
2024-03-18T00:43:58.120Z,1017.66
2024-03-18T00:44:58.121Z,1017.69
2024-03-18T00:45:58.128Z,1017.63
2024-03-18T00:46:58.133Z,1017.64
2024-03-18T00:47:58.142Z,1017.68
2024-03-18T00:48:58.153Z,1017.66
2024-03-18T00:49:58.170Z,1017.67
2024-03-18T00:50:58.166Z,1017.66
2024-03-18T00:51:58.175Z,1017.66
2024-03-18T00:52:58.184Z,1017.63
2024-03-18T00:53:58.202Z,1017.66
2024-03-18T00:54:58.200Z,1017.66
2024-03-18T00:55:58.211Z,1017.65
2024-03-18T00:56:58.239Z,1017.62
2024-03-18T00:57:58.232Z,1017.59
2024-03-18T00:58:58.236Z,1017.58
2024-03-18T00:59:58.251Z,1017.58
2024-03-18T01:00:58.263Z,1017.54
2024-03-18T01:01:58.263Z,1017.59
2024-03-18T01:02:58.279Z,1017.58
2024-03-18T01:03:58.278Z,1017.58
2024-03-18T01:04:58.290Z,1017.54
2024-03-18T01:05:58.298Z,1017.48
2024-03-18T01:06:58.305Z,1017.48
2024-03-18T01:07:58.312Z,1017.50
2024-03-18T01:08:58.317Z,1017.52
2024-03-18T01:09:58.333Z,1017.52
2024-03-18T01:10:58.346Z,1017.52
2024-03-18T01:11:58.348Z,1017.51
2024-03-18T01:12:58.360Z,1017.50
2024-03-18T01:13:58.359Z,1017.53
2024-03-18T01:14:58.369Z,1017.46
2024-03-18T01:15:58.391Z,1017.48
2024-03-18T01:16:58.384Z,1017.50
2024-03-18T01:17:58.402Z,1017.52
2024-03-18T01:18:58.403Z,1017.45
2024-03-18T01:19:58.408Z,1017.46
2024-03-18T01:20:58.422Z,1017.42
2024-03-18T01:21:58.440Z,1017.47
2024-03-18T01:22:58.452Z,1017.46
2024-03-18T01:23:58.450Z,1017.45
2024-03-18T01:24:58.455Z,1017.43
2024-03-18T01:25:58.468Z,1017.42
2024-03-18T01:26:58.474Z,1017.41
2024-03-18T01:27:58.482Z,1017.43
2024-03-18T01:28:58.484Z,1017.41
2024-03-18T01:29:58.492Z,1017.43
2024-03-18T01:30:58.502Z,1017.40
2024-03-18T01:31:58.525Z,1017.43
2024-03-18T01:32:58.515Z,1017.41
2024-03-18T01:33:58.524Z,1017.38
2024-03-18T01:34:58.538Z,1017.42
2024-03-18T01:35:58.540Z,1017.40
2024-03-18T01:36:58.552Z,1017.40
2024-03-18T01:37:58.562Z,1017.39
2024-03-18T01:38:58.565Z,1017.43
2024-03-18T01:39:58.576Z,1017.41
2024-03-18T01:40:58.580Z,1017.41
2024-03-18T01:41:58.589Z,1017.40
2024-03-18T01:42:58.598Z,1017.41
2024-03-18T01:43:58.604Z,1017.38
2024-03-18T01:44:58.643Z,1017.41
2024-03-18T01:45:58.622Z,1017.39
2024-03-18T01:46:58.633Z,1017.41
2024-03-18T01:47:58.638Z,1017.38
2024-03-18T01:48:58.647Z,1017.40
2024-03-18T01:49:58.649Z,1017.34
2024-03-18T01:50:58.661Z,1017.31
2024-03-18T01:51:58.675Z,1017.26
2024-03-18T01:52:58.676Z,1017.27
2024-03-18T01:53:58.685Z,1017.26
2024-03-18T01:54:58.692Z,1017.27
2024-03-18T01:55:58.701Z,1017.23
2024-03-18T01:56:58.713Z,1017.21
2024-03-18T01:57:58.738Z,1017.22
2024-03-18T01:58:58.731Z,1017.20
2024-03-18T01:59:58.741Z,1017.19
2024-03-18T02:00:58.750Z,1017.19
2024-03-18T02:01:58.746Z,1017.17
2024-03-18T02:02:58.757Z,1017.16
2024-03-18T02:04:00.594Z,1017.11
2024-03-18T02:04:58.772Z,1017.13
2024-03-18T02:05:58.786Z,1017.08
2024-03-18T02:06:58.786Z,1017.11
2024-03-18T02:07:58.801Z,1017.03
2024-03-18T02:08:58.803Z,1017.09
2024-03-18T02:09:58.812Z,1017.07
2024-03-18T02:10:58.822Z,1017.08
2024-03-18T02:11:58.827Z,1017.07
2024-03-18T02:12:58.835Z,1017.05
2024-03-18T02:13:58.850Z,1017.02
2024-03-18T02:14:58.852Z,1017.04
2024-03-18T02:15:58.859Z,1017.06
2024-03-18T02:16:58.868Z,1017.03
2024-03-18T02:17:58.877Z,1017.02
2024-03-18T02:18:58.884Z,1017.04
2024-03-18T02:19:58.887Z,1017.05
2024-03-18T02:20:58.900Z,1016.99
2024-03-18T02:21:58.907Z,1017.01
2024-03-18T02:22:58.915Z,1017.00
2024-03-18T02:23:58.929Z,1016.98
2024-03-18T02:24:58.943Z,1016.94
2024-03-18T02:25:58.938Z,1016.93
2024-03-18T02:26:58.946Z,1016.89
2024-03-18T02:27:58.965Z,1016.91
2024-03-18T02:28:58.961Z,1016.88
2024-03-18T02:29:58.968Z,1016.90
2024-03-18T02:30:58.994Z,1016.87
2024-03-18T02:31:58.987Z,1016.86
2024-03-18T02:32:58.996Z,1016.82
2024-03-18T02:33:59.004Z,1016.79
2024-03-18T02:34:59.013Z,1016.79
2024-03-18T02:35:59.018Z,1016.77
2024-03-18T02:36:59.035Z,1016.76
2024-03-18T02:37:59.034Z,1016.73
2024-03-18T02:38:59.048Z,1016.71
2024-03-18T02:39:59.052Z,1016.68
2024-03-18T02:40:59.056Z,1016.74
2024-03-18T02:41:59.064Z,1016.71
2024-03-18T02:42:59.072Z,1016.70
2024-03-18T02:43:59.079Z,1016.69
2024-03-18T02:44:59.085Z,1016.68
2024-03-18T02:45:59.094Z,1016.68
2024-03-18T02:46:59.104Z,1016.66
2024-03-18T02:47:59.111Z,1016.60
2024-03-18T02:48:59.121Z,1016.58
2024-03-18T02:49:59.130Z,1016.57
2024-03-18T02:50:59.133Z,1016.55
2024-03-18T02:51:59.143Z,1016.54
2024-03-18T02:52:59.147Z,1016.51
2024-03-18T02:53:59.157Z,1016.51
2024-03-18T02:54:59.164Z,1016.48
2024-03-18T02:55:59.172Z,1016.48
2024-03-18T02:56:59.185Z,1016.50
2024-03-18T02:57:59.188Z,1016.49
2024-03-18T02:58:59.194Z,1016.51
2024-03-18T02:59:59.200Z,1016.49
2024-03-18T03:00:59.210Z,1016.51
2024-03-18T03:01:59.217Z,1016.51
2024-03-18T03:02:59.223Z,1016.53
2024-03-18T03:03:59.236Z,1016.48
2024-03-18T03:04:59.241Z,1016.51
2024-03-18T03:05:59.250Z,1016.52
2024-03-18T03:06:59.257Z,1016.50
2024-03-18T03:07:59.263Z,1016.52
2024-03-18T03:08:59.269Z,1016.52
2024-03-18T03:09:59.280Z,1016.50
2024-03-18T03:10:59.287Z,1016.45
2024-03-18T03:11:59.296Z,1016.47
2024-03-18T03:12:59.304Z,1016.44
2024-03-18T03:13:59.319Z,1016.45
2024-03-18T03:14:59.318Z,1016.45
2024-03-18T03:15:59.331Z,1016.44
2024-03-18T03:16:59.338Z,1016.41
2024-03-18T03:17:59.340Z,1016.37
2024-03-18T03:18:59.361Z,1016.39
2024-03-18T03:19:59.370Z,1016.41
2024-03-18T03:20:59.362Z,1016.40
2024-03-18T03:21:59.369Z,1016.37
2024-03-18T03:22:59.379Z,1016.43
2024-03-18T03:23:59.389Z,1016.42
2024-03-18T03:24:59.408Z,1016.38
2024-03-18T03:25:59.405Z,1016.41
2024-03-18T03:26:59.411Z,1016.38
2024-03-18T03:27:59.416Z,1016.43
2024-03-18T03:28:59.425Z,1016.43
2024-03-18T03:29:59.433Z,1016.49
2024-03-18T03:30:59.440Z,1016.45
2024-03-18T03:31:59.443Z,1016.46
2024-03-18T03:32:59.460Z,1016.51
2024-03-18T03:33:59.462Z,1016.49
2024-03-18T03:34:59.474Z,1016.47
2024-03-18T03:35:59.480Z,1016.47
2024-03-18T03:36:59.498Z,1016.47
2024-03-18T03:37:59.494Z,1016.51
2024-03-18T03:38:59.518Z,1016.44
2024-03-18T03:39:59.509Z,1016.44
2024-03-18T03:40:59.518Z,1016.44
2024-03-18T03:41:59.525Z,1016.42
2024-03-18T03:42:59.534Z,1016.43
2024-03-18T03:43:59.534Z,1016.46
2024-03-18T03:44:59.550Z,1016.45
2024-03-18T03:45:59.563Z,1016.45
2024-03-18T03:46:59.563Z,1016.42
2024-03-18T03:47:59.573Z,1016.42
2024-03-18T03:48:59.596Z,1016.41
2024-03-18T03:49:59.587Z,1016.44
2024-03-18T03:50:59.592Z,1016.44
2024-03-18T03:51:59.602Z,1016.43
2024-03-18T03:52:59.609Z,1016.49
2024-03-18T03:53:59.622Z,1016.43
2024-03-18T03:54:59.626Z,1016.44
2024-03-18T03:55:59.629Z,1016.46
2024-03-18T03:56:59.647Z,1016.42
2024-03-18T03:58:01.279Z,1016.42
2024-03-18T03:58:59.659Z,1016.40
2024-03-18T03:59:59.661Z,1016.31
2024-03-18T04:00:59.670Z,1016.31
2024-03-18T04:01:59.682Z,1016.30
2024-03-18T04:02:59.688Z,1016.31
2024-03-18T04:03:59.693Z,1016.32
2024-03-18T04:04:59.701Z,1016.31
2024-03-18T04:05:59.713Z,1016.29
2024-03-18T04:06:59.716Z,1016.28
2024-03-18T04:07:59.724Z,1016.34
2024-03-18T04:08:59.732Z,1016.35
2024-03-18T04:09:59.737Z,1016.35
2024-03-18T04:10:59.745Z,1016.33
2024-03-18T04:11:59.752Z,1016.36
2024-03-18T04:12:59.761Z,1016.35
2024-03-18T04:13:59.767Z,1016.38
2024-03-18T04:14:59.776Z,1016.36
2024-03-18T04:15:59.784Z,1016.38
2024-03-18T04:16:59.789Z,1016.37
2024-03-18T04:17:59.801Z,1016.34
2024-03-18T04:18:59.805Z,1016.36
2024-03-18T04:19:59.816Z,1016.37
2024-03-18T04:20:59.825Z,1016.40
2024-03-18T04:21:59.827Z,1016.36
2024-03-18T04:22:59.835Z,1016.33
2024-03-18T04:23:59.842Z,1016.34
2024-03-18T04:24:59.850Z,1016.37
2024-03-18T04:25:59.885Z,1016.35
2024-03-18T04:26:59.864Z,1016.38
2024-03-18T04:27:59.873Z,1016.31
2024-03-18T04:28:59.881Z,1016.35
2024-03-18T04:29:59.887Z,1016.35
2024-03-18T04:30:59.895Z,1016.33
2024-03-18T04:31:59.908Z,1016.31
2024-03-18T04:32:59.908Z,1016.29
2024-03-18T04:33:59.914Z,1016.28
2024-03-18T04:34:59.924Z,1016.25
2024-03-18T04:35:59.935Z,1016.22
2024-03-18T04:36:59.940Z,1016.25
2024-03-18T04:37:59.946Z,1016.21
2024-03-18T04:38:59.957Z,1016.24
2024-03-18T04:39:59.959Z,1016.26
2024-03-18T04:40:59.973Z,1016.29
2024-03-18T04:41:59.976Z,1016.30
2024-03-18T04:42:59.984Z,1016.31
2024-03-18T04:43:59.990Z,1016.30
2024-03-18T04:44:59.996Z,1016.31
2024-03-18T04:46:00.002Z,1016.31
2024-03-18T04:47:00.015Z,1016.31
2024-03-18T04:48:00.027Z,1016.31
2024-03-18T04:49:00.029Z,1016.32
2024-03-18T04:50:00.083Z,1016.36
2024-03-18T04:51:00.042Z,1016.29
2024-03-18T04:52:00.051Z,1016.34
2024-03-18T04:53:00.086Z,1016.36
2024-03-18T04:54:00.070Z,1016.32
2024-03-18T04:55:00.073Z,1016.32
2024-03-18T04:56:00.116Z,1016.32
2024-03-18T04:57:00.086Z,1016.30
2024-03-18T04:58:00.093Z,1016.34
2024-03-18T04:59:00.102Z,1016.28
2024-03-18T05:00:00.149Z,1016.29
2024-03-18T05:01:00.132Z,1016.31
2024-03-18T05:02:00.157Z,1016.32
2024-03-18T05:03:00.135Z,1016.28
2024-03-18T05:04:00.159Z,1016.28
2024-03-18T05:05:00.261Z,1016.30
2024-03-18T05:06:00.166Z,1016.29
2024-03-18T05:07:00.186Z,1016.32
2024-03-18T05:08:00.241Z,1016.25
2024-03-18T05:09:00.207Z,1016.28
2024-03-18T05:10:00.251Z,1016.28
2024-03-18T05:11:00.223Z,1016.28
2024-03-18T05:12:00.208Z,1016.27
2024-03-18T05:13:00.235Z,1016.26
2024-03-18T05:14:00.264Z,1016.29
2024-03-18T05:15:00.255Z,1016.28
2024-03-18T05:16:00.233Z,1016.25
2024-03-18T05:17:00.259Z,1016.32
2024-03-18T05:18:00.240Z,1016.34
2024-03-18T05:19:00.251Z,1016.33
2024-03-18T05:20:00.332Z,1016.38
2024-03-18T05:21:00.266Z,1016.43
2024-03-18T05:22:00.285Z,1016.37
2024-03-18T05:23:00.299Z,1016.43
2024-03-18T05:24:03.421Z,1016.40
2024-03-18T05:25:00.311Z,1016.45
2024-03-18T05:26:00.323Z,1016.44
2024-03-18T05:27:00.320Z,1016.46
2024-03-18T05:28:00.321Z,1016.45
2024-03-18T05:29:00.403Z,1016.47
2024-03-18T05:30:00.381Z,1016.48
2024-03-18T05:31:00.357Z,1016.46
2024-03-18T05:32:00.356Z,1016.41
2024-03-18T05:33:00.359Z,1016.46
2024-03-18T05:34:00.375Z,1016.41
2024-03-18T05:35:00.436Z,1016.34
2024-03-18T05:36:00.396Z,1016.34
2024-03-18T05:37:00.395Z,1016.38
2024-03-18T05:38:00.459Z,1016.42
2024-03-18T05:39:00.406Z,1016.39
2024-03-18T05:40:00.431Z,1016.43
2024-03-18T05:41:00.432Z,1016.40
2024-03-18T05:42:00.432Z,1016.42
2024-03-18T05:43:00.434Z,1016.47
2024-03-18T05:44:00.524Z,1016.40
2024-03-18T05:45:00.463Z,1016.41
2024-03-18T05:46:00.458Z,1016.41
2024-03-18T05:47:00.478Z,1016.41
2024-03-18T05:48:00.503Z,1016.39
2024-03-18T05:49:00.499Z,1016.36
2024-03-18T05:50:00.593Z,1016.36
2024-03-18T05:51:00.496Z,1016.35
2024-03-18T05:52:00.505Z,1016.35
2024-03-18T05:53:00.585Z,1016.25
2024-03-18T05:54:00.536Z,1016.25
2024-03-18T05:55:00.571Z,1016.25
2024-03-18T05:56:00.583Z,1016.25
2024-03-18T05:57:00.551Z,1016.23
2024-03-18T05:58:00.557Z,1016.26
2024-03-18T05:59:00.601Z,1016.28
2024-03-18T06:00:00.602Z,1016.27
2024-03-18T06:01:00.577Z,1016.32
2024-03-18T06:02:00.674Z,1016.30
2024-03-18T06:03:00.594Z,1016.30
2024-03-18T06:04:00.601Z,1016.31
2024-03-18T06:05:00.724Z,1016.37
2024-03-18T06:06:00.613Z,1016.35
2024-03-18T06:07:00.624Z,1016.40
2024-03-18T06:08:00.663Z,1016.37
2024-03-18T06:09:00.649Z,1016.41
2024-03-18T06:10:00.662Z,1016.42
2024-03-18T06:11:00.702Z,1016.43
2024-03-18T06:12:00.680Z,1016.39
2024-03-18T06:13:00.680Z,1016.36
2024-03-18T06:14:00.724Z,1016.36
2024-03-18T06:15:00.695Z,1016.41
2024-03-18T06:16:00.721Z,1016.36
2024-03-18T06:17:00.740Z,1016.38
2024-03-18T06:18:00.714Z,1016.36
2024-03-18T06:19:00.739Z,1016.37
2024-03-18T06:20:00.862Z,1016.38
2024-03-18T06:21:00.753Z,1016.33
2024-03-18T06:22:00.752Z,1016.36
2024-03-18T06:23:00.796Z,1016.38
2024-03-18T06:24:00.767Z,1016.37
2024-03-18T06:25:00.780Z,1016.37
2024-03-18T06:26:00.809Z,1016.36
2024-03-18T06:27:00.792Z,1016.36
2024-03-18T06:28:00.801Z,1016.36
2024-03-18T06:29:00.920Z,1016.35
2024-03-18T06:30:00.838Z,1016.40
2024-03-18T06:31:00.826Z,1016.38
2024-03-18T06:32:00.849Z,1016.42
2024-03-18T06:33:00.848Z,1016.37
2024-03-18T06:34:00.859Z,1016.38
2024-03-18T06:35:00.884Z,1016.42
2024-03-18T06:36:00.869Z,1016.43
2024-03-18T06:37:00.876Z,1016.43
2024-03-18T06:38:00.893Z,1016.45
2024-03-18T06:39:00.903Z,1016.41
2024-03-18T06:40:00.909Z,1016.44
2024-03-18T06:41:00.933Z,1016.42
2024-03-18T06:42:00.924Z,1016.45
2024-03-18T06:43:00.937Z,1016.44
2024-03-18T06:44:00.975Z,1016.46
2024-03-18T06:45:00.962Z,1016.41
2024-03-18T06:46:00.982Z,1016.37
2024-03-18T06:47:00.981Z,1016.40
2024-03-18T06:48:01.000Z,1016.37
2024-03-18T06:49:00.980Z,1016.39
2024-03-18T06:50:01.034Z,1016.38
2024-03-18T06:51:01.007Z,1016.34
2024-03-18T06:52:01.014Z,1016.33
2024-03-18T06:53:01.020Z,1016.36
2024-03-18T06:54:01.044Z,1016.30
2024-03-18T06:55:01.036Z,1016.33
2024-03-18T06:56:01.067Z,1016.31
2024-03-18T06:57:01.056Z,1016.28
2024-03-18T06:58:01.069Z,1016.31
2024-03-18T06:59:01.079Z,1016.30
2024-03-18T07:00:01.116Z,1016.32
2024-03-18T07:01:01.087Z,1016.28
2024-03-18T07:02:01.114Z,1016.27
2024-03-18T07:03:01.106Z,1016.27
2024-03-18T07:04:01.136Z,1016.30
2024-03-18T07:05:01.146Z,1016.27
2024-03-18T07:06:01.132Z,1016.32
2024-03-18T07:07:01.143Z,1016.26
2024-03-18T07:08:01.164Z,1016.27
2024-03-18T07:09:01.160Z,1016.25
2024-03-18T07:10:01.189Z,1016.27
2024-03-18T07:11:01.205Z,1016.26
2024-03-18T07:12:01.187Z,1016.29
2024-03-18T07:13:01.198Z,1016.23
2024-03-18T07:14:01.213Z,1016.24
2024-03-18T07:15:01.221Z,1016.22
2024-03-18T07:16:01.228Z,1016.23
2024-03-18T07:17:01.240Z,1016.17
2024-03-18T07:18:01.244Z,1016.17
2024-03-18T07:19:01.259Z,1016.16
2024-03-18T07:20:13.168Z,1016.15
2024-03-18T07:21:01.317Z,1016.16
2024-03-18T07:22:01.281Z,1016.19
2024-03-18T07:23:01.333Z,1016.15
2024-03-18T07:24:01.301Z,1016.18
2024-03-18T07:25:01.335Z,1016.23
2024-03-18T07:26:01.382Z,1016.22
2024-03-18T07:27:01.335Z,1016.24
2024-03-18T07:28:01.357Z,1016.17
2024-03-18T07:29:01.376Z,1016.20
2024-03-18T07:30:01.357Z,1016.18
2024-03-18T07:31:01.361Z,1016.18
2024-03-18T07:32:01.382Z,1016.19
2024-03-18T07:33:01.385Z,1016.16
2024-03-18T07:34:01.404Z,1016.22
2024-03-18T07:35:11.069Z,1016.16
2024-03-18T07:36:01.412Z,1016.18
2024-03-18T07:37:01.421Z,1016.15
2024-03-18T07:38:05.977Z,1016.16
2024-03-18T07:39:01.445Z,1016.17
2024-03-18T07:40:01.498Z,1016.17
2024-03-18T07:41:01.585Z,1016.11
2024-03-18T07:42:01.499Z,1016.15
2024-03-18T07:43:01.532Z,1016.13
2024-03-18T07:44:01.506Z,1016.12
2024-03-18T07:45:01.711Z,1016.16
2024-03-18T07:46:01.526Z,1016.09
2024-03-18T07:47:01.587Z,1016.09
2024-03-18T07:48:01.534Z,1016.10
2024-03-18T07:49:01.536Z,1016.11
2024-03-18T07:50:01.679Z,1016.08
2024-03-18T07:51:01.566Z,1016.06
2024-03-18T07:52:01.611Z,1016.08
2024-03-18T07:53:01.596Z,1016.04
2024-03-18T07:54:01.588Z,1016.07
2024-03-18T07:55:01.598Z,1016.08
2024-03-18T07:56:01.696Z,1016.09
2024-03-18T07:57:01.637Z,1015.96
2024-03-18T07:58:01.631Z,1016.01
2024-03-18T07:59:01.677Z,1015.98
2024-03-18T08:00:01.652Z,1016.02
2024-03-18T08:01:01.658Z,1016.04
2024-03-18T08:02:01.711Z,1016.06
2024-03-18T08:03:01.708Z,1016.05
2024-03-18T08:04:01.702Z,1016.03
2024-03-18T08:05:01.850Z,1016.03
2024-03-18T08:06:01.719Z,1016.01
2024-03-18T08:07:01.732Z,1016.04
2024-03-18T08:08:01.744Z,1016.00
2024-03-18T08:09:01.741Z,1015.96
2024-03-18T08:10:01.745Z,1016.01
2024-03-18T08:11:01.803Z,1015.99
2024-03-18T08:12:01.812Z,1015.97
2024-03-18T08:13:01.844Z,1015.94
2024-03-18T08:14:01.943Z,1015.94
2024-03-18T08:15:01.870Z,1015.93
2024-03-18T08:16:01.813Z,1015.92
2024-03-18T08:17:01.973Z,1015.93
2024-03-18T08:18:01.890Z,1015.90
2024-03-18T08:19:01.839Z,1015.91
2024-03-18T08:20:01.931Z,1015.88
2024-03-18T08:21:01.872Z,1015.89
2024-03-18T08:22:10.444Z,1015.89
2024-03-18T08:23:01.896Z,1015.84
2024-03-18T08:24:01.890Z,1015.86
2024-03-18T08:25:01.899Z,1015.88
2024-03-18T08:26:01.934Z,1015.94
2024-03-18T08:27:01.932Z,1015.91
2024-03-18T08:28:01.938Z,1015.85
2024-03-18T08:29:01.964Z,1015.83
2024-03-18T08:30:02.038Z,1015.90
2024-03-18T08:31:01.964Z,1015.84
2024-03-18T08:32:02.009Z,1015.89
2024-03-18T08:33:13.013Z,1015.81
2024-03-18T08:34:05.205Z,1015.79
2024-03-18T08:35:02.136Z,1015.88
2024-03-18T08:36:02.010Z,1015.69
2024-03-18T08:37:02.025Z,1015.82
2024-03-18T08:38:02.049Z,1015.79
2024-03-18T08:39:02.060Z,1015.82
2024-03-18T08:40:02.099Z,1015.81
2024-03-18T08:41:02.136Z,1015.77
2024-03-18T08:42:02.124Z,1015.80
2024-03-18T08:43:02.108Z,1015.83
2024-03-18T08:44:02.098Z,1015.84
2024-03-18T08:45:02.106Z,1015.79
2024-03-18T08:46:02.175Z,1015.77
2024-03-18T08:47:02.152Z,1015.80
2024-03-18T08:48:02.143Z,1015.84
2024-03-18T08:49:02.157Z,1015.77
2024-03-18T08:50:02.216Z,1015.81
2024-03-18T08:51:02.171Z,1015.80
2024-03-18T08:52:02.197Z,1015.79
2024-03-18T08:53:02.206Z,1015.82
2024-03-18T08:54:02.208Z,1015.80
2024-03-18T08:55:02.246Z,1015.80
2024-03-18T08:56:02.237Z,1015.79
2024-03-18T08:57:02.315Z,1015.75
2024-03-18T08:58:02.257Z,1015.74
2024-03-18T08:59:02.273Z,1015.75
2024-03-18T09:00:02.306Z,1015.79
2024-03-18T09:01:02.278Z,1015.76
2024-03-18T09:02:02.373Z,1015.82
2024-03-18T09:03:02.306Z,1015.77
2024-03-18T09:04:02.315Z,1015.80
2024-03-18T09:05:02.472Z,1015.83
2024-03-18T09:06:02.334Z,1015.80
2024-03-18T09:07:02.382Z,1015.79
2024-03-18T09:08:02.446Z,1015.74
2024-03-18T09:09:02.368Z,1015.80
2024-03-18T09:10:02.399Z,1015.75
2024-03-18T09:11:02.399Z,1015.75
2024-03-18T09:12:02.421Z,1015.77
2024-03-18T09:13:02.409Z,1015.78
2024-03-18T09:14:02.421Z,1015.76
2024-03-18T09:15:02.437Z,1015.77
2024-03-18T09:16:02.453Z,1015.78
2024-03-18T09:17:02.456Z,1015.79
2024-03-18T09:18:02.479Z,1015.73
2024-03-18T09:19:02.500Z,1015.76
2024-03-18T09:20:02.513Z,1015.69
2024-03-18T09:21:02.503Z,1015.69
2024-03-18T09:22:02.525Z,1015.68
2024-03-18T09:23:02.530Z,1015.68
2024-03-18T09:24:02.553Z,1015.69
2024-03-18T09:25:02.572Z,1015.73
2024-03-18T09:26:02.562Z,1015.69
2024-03-18T09:27:02.696Z,1015.69
2024-03-18T09:28:02.595Z,1015.70
2024-03-18T09:29:02.598Z,1015.72
2024-03-18T09:30:02.620Z,1015.67
2024-03-18T09:31:02.625Z,1015.70
2024-03-18T09:32:02.688Z,1015.74
2024-03-18T09:33:02.644Z,1015.67
2024-03-18T09:34:02.715Z,1015.72
2024-03-18T09:35:02.693Z,1015.63
2024-03-18T09:36:02.756Z,1015.61
2024-03-18T09:37:02.694Z,1015.64
2024-03-18T09:38:02.763Z,1015.63
2024-03-18T09:39:02.774Z,1015.66
2024-03-18T09:40:02.738Z,1015.64
2024-03-18T09:41:02.740Z,1015.64
2024-03-18T09:42:02.889Z,1015.62
2024-03-18T09:43:02.770Z,1015.61
2024-03-18T09:44:02.831Z,1015.61
2024-03-18T09:45:02.786Z,1015.62
2024-03-18T09:46:02.813Z,1015.59
2024-03-18T09:47:03.093Z,1015.57
2024-03-18T09:48:02.914Z,1015.60
2024-03-18T09:49:02.835Z,1015.61
2024-03-18T09:50:02.888Z,1015.56
2024-03-18T09:51:02.891Z,1015.58
2024-03-18T09:52:02.877Z,1015.58
2024-03-18T09:53:02.908Z,1015.60
2024-03-18T09:54:02.961Z,1015.59
2024-03-18T09:55:02.935Z,1015.59
2024-03-18T09:56:03.131Z,1015.61
2024-03-18T09:57:02.951Z,1015.59
2024-03-18T09:58:02.944Z,1015.57
2024-03-18T09:59:03.124Z,1015.58
2024-03-18T10:00:03.075Z,1015.52
2024-03-18T10:01:02.979Z,1015.55
2024-03-18T10:02:03.002Z,1015.52
2024-03-18T10:03:03.034Z,1015.48
2024-03-18T10:04:03.034Z,1015.48
2024-03-18T10:05:03.189Z,1015.48
2024-03-18T10:06:03.046Z,1015.50
2024-03-18T10:07:03.059Z,1015.51
2024-03-18T10:08:03.120Z,1015.44
2024-03-18T10:09:03.104Z,1015.42
2024-03-18T10:10:03.089Z,1015.46
2024-03-18T10:11:03.101Z,1015.44
2024-03-18T10:12:03.170Z,1015.45
2024-03-18T10:13:03.127Z,1015.42
2024-03-18T10:14:03.138Z,1015.44
2024-03-18T10:15:03.163Z,1015.42
2024-03-18T10:16:03.198Z,1015.39
2024-03-18T10:17:03.188Z,1015.39
2024-03-18T10:18:03.192Z,1015.36
2024-03-18T10:19:03.201Z,1015.39
2024-03-18T10:20:03.216Z,1015.38
2024-03-18T10:21:03.238Z,1015.39
2024-03-18T10:22:03.249Z,1015.42
2024-03-18T10:23:03.261Z,1015.44
2024-03-18T10:24:03.268Z,1015.38
2024-03-18T10:25:03.277Z,1015.41
2024-03-18T10:26:03.307Z,1015.41
2024-03-18T10:27:03.308Z,1015.37
2024-03-18T10:28:03.324Z,1015.39
2024-03-18T10:29:03.331Z,1015.37
2024-03-18T10:30:03.341Z,1015.38
2024-03-18T10:31:03.351Z,1015.31
2024-03-18T10:32:03.364Z,1015.32
2024-03-18T10:33:03.372Z,1015.32
2024-03-18T10:34:03.437Z,1015.35
2024-03-18T10:35:03.505Z,1015.31
2024-03-18T10:36:03.413Z,1015.36
2024-03-18T10:37:03.451Z,1015.29
2024-03-18T10:38:03.439Z,1015.30
2024-03-18T10:39:03.485Z,1015.34
2024-03-18T10:40:03.465Z,1015.33
2024-03-18T10:41:03.482Z,1015.29
2024-03-18T10:42:03.529Z,1015.30
2024-03-18T10:43:03.500Z,1015.32
2024-03-18T10:44:03.513Z,1015.29
2024-03-18T10:45:03.531Z,1015.26
2024-03-18T10:46:03.547Z,1015.25
2024-03-18T10:47:03.551Z,1015.23
2024-03-18T10:48:03.584Z,1015.27
2024-03-18T10:49:03.586Z,1015.26
2024-03-18T10:50:03.594Z,1015.23
2024-03-18T10:51:03.602Z,1015.26
2024-03-18T10:52:03.620Z,1015.24
2024-03-18T10:53:03.643Z,1015.22
2024-03-18T10:54:03.641Z,1015.21
2024-03-18T10:55:03.658Z,1015.15
2024-03-18T10:56:03.673Z,1015.15
2024-03-18T10:57:03.684Z,1015.18
2024-03-18T10:58:03.738Z,1015.13
2024-03-18T10:59:03.710Z,1015.15
2024-03-18T11:00:03.812Z,1015.10
2024-03-18T11:01:03.747Z,1015.14
2024-03-18T11:02:03.749Z,1015.10
2024-03-18T11:03:03.794Z,1015.10
2024-03-18T11:04:03.792Z,1015.16
2024-03-18T11:05:03.808Z,1015.12
2024-03-18T11:06:03.801Z,1015.07
2024-03-18T11:07:03.816Z,1015.08
2024-03-18T11:08:03.828Z,1015.07
2024-03-18T11:09:03.839Z,1015.01
2024-03-18T11:10:03.965Z,1015.03
2024-03-18T11:11:03.945Z,1014.97
2024-03-18T11:12:03.930Z,1015.01
2024-03-18T11:13:03.901Z,1015.00
2024-03-18T11:14:03.915Z,1014.99
2024-03-18T11:15:03.927Z,1014.98
2024-03-18T11:16:03.933Z,1015.03
2024-03-18T11:17:05.310Z,1015.01
2024-03-18T11:18:03.966Z,1015.02
2024-03-18T11:19:03.969Z,1014.96
2024-03-18T11:20:03.983Z,1014.94
2024-03-18T11:21:03.998Z,1014.96
2024-03-18T11:22:04.023Z,1014.95
2024-03-18T11:23:04.025Z,1014.97
2024-03-18T11:24:04.042Z,1014.96
2024-03-18T11:25:04.054Z,1014.92
2024-03-18T11:26:04.065Z,1014.94
2024-03-18T11:27:04.110Z,1014.90
2024-03-18T11:28:04.090Z,1014.89
2024-03-18T11:29:04.107Z,1014.90
2024-03-18T11:30:04.146Z,1014.88
2024-03-18T11:31:04.138Z,1014.87
2024-03-18T11:32:04.143Z,1014.79
2024-03-18T11:33:04.173Z,1014.82
2024-03-18T11:34:04.187Z,1014.82
2024-03-18T11:35:04.194Z,1014.86
2024-03-18T11:36:04.209Z,1014.81
2024-03-18T11:37:04.209Z,1014.80
2024-03-18T11:38:04.259Z,1014.82
2024-03-18T11:39:06.077Z,1014.84
2024-03-18T11:40:04.334Z,1014.81
2024-03-18T11:41:04.265Z,1014.81
2024-03-18T11:42:04.289Z,1014.77
2024-03-18T11:43:04.290Z,1014.75
2024-03-18T11:44:04.298Z,1014.78
2024-03-18T11:45:04.315Z,1014.77
2024-03-18T11:46:04.339Z,1014.75
2024-03-18T11:47:04.336Z,1014.75
2024-03-18T11:48:04.351Z,1014.75
2024-03-18T11:49:04.357Z,1014.78
2024-03-18T11:50:04.377Z,1014.75
2024-03-18T11:51:04.394Z,1014.73
2024-03-18T11:52:04.448Z,1014.71
2024-03-18T11:53:04.430Z,1014.69
2024-03-18T11:54:04.444Z,1014.68
2024-03-18T11:55:04.443Z,1014.72
2024-03-18T11:56:04.460Z,1014.67
2024-03-18T11:57:04.475Z,1014.68
2024-03-18T11:58:04.481Z,1014.67
2024-03-18T11:59:04.504Z,1014.62
2024-03-18T12:00:04.520Z,1014.59
2024-03-18T12:01:06.607Z,1014.57
2024-03-18T12:02:04.533Z,1014.56
2024-03-18T12:03:04.554Z,1014.58
2024-03-18T12:04:04.560Z,1014.51
2024-03-18T12:05:04.566Z,1014.52
2024-03-18T12:06:04.603Z,1014.52